createdAt,value
2022-10-05T00:00:21.960Z,19.00
2022-10-05T00:02:50.473Z,19.00
2022-10-05T00:05:29.229Z,19.00
2022-10-05T00:08:02.907Z,19.10
2022-10-05T00:10:30.260Z,19.00
2022-10-05T00:12:57.325Z,19.00
2022-10-05T00:15:24.457Z,19.00
2022-10-05T00:17:51.540Z,19.00
2022-10-05T00:20:20.928Z,19.00
2022-10-05T00:22:48.242Z,19.00
2022-10-05T00:25:19.164Z,19.00
2022-10-05T00:27:53.368Z,19.00
2022-10-05T00:30:21.432Z,19.00
2022-10-05T00:32:48.836Z,19.00
2022-10-05T00:35:17.178Z,19.00
2022-10-05T00:37:45.017Z,19.00
2022-10-05T00:40:32.301Z,19.00
2022-10-05T00:43:30.111Z,18.90
2022-10-05T00:46:16.300Z,18.90
2022-10-05T00:49:03.457Z,18.90
2022-10-05T00:51:35.252Z,18.90
2022-10-05T00:54:20.870Z,19.00
2022-10-05T00:57:06.409Z,19.00
2022-10-05T00:59:58.746Z,19.00
2022-10-05T01:02:35.810Z,19.00
2022-10-05T01:05:24.265Z,19.00
2022-10-05T01:08:08.029Z,19.00
2022-10-05T01:10:38.105Z,19.00
2022-10-05T01:13:05.105Z,19.00
2022-10-05T01:15:35.869Z,19.10
2022-10-05T01:18:22.000Z,19.00
2022-10-05T01:21:08.517Z,19.00
2022-10-05T01:23:38.661Z,19.00
2022-10-05T01:26:21.165Z,19.00
2022-10-05T01:29:18.145Z,19.00
2022-10-05T01:32:02.801Z,19.00
2022-10-05T01:34:38.741Z,19.00
2022-10-05T01:37:27.143Z,19.00
2022-10-05T01:40:25.574Z,19.00
2022-10-05T01:43:30.187Z,19.00
2022-10-05T01:46:23.284Z,19.00
2022-10-05T01:49:15.930Z,19.00
2022-10-05T01:52:24.776Z,19.00
2022-10-05T01:55:22.714Z,19.00
2022-10-05T01:58:33.894Z,19.00
2022-10-05T02:01:21.781Z,19.00
2022-10-05T02:04:29.591Z,19.00
2022-10-05T02:07:03.954Z,19.00
2022-10-05T02:09:37.251Z,19.00
2022-10-05T02:12:12.578Z,19.30
2022-10-05T02:14:43.260Z,19.00
2022-10-05T02:17:36.383Z,18.90
2022-10-05T02:20:09.039Z,19.00
2022-10-05T02:22:41.527Z,19.00
2022-10-05T02:25:17.808Z,19.00
2022-10-05T02:27:56.790Z,19.00
2022-10-05T02:30:24.084Z,19.00
2022-10-05T02:32:59.171Z,19.00
2022-10-05T02:35:26.347Z,19.00
2022-10-05T02:37:59.143Z,19.00
2022-10-05T02:40:31.755Z,19.00
2022-10-05T02:43:02.047Z,19.00
2022-10-05T02:45:46.960Z,19.00
2022-10-05T02:48:47.371Z,19.00
2022-10-05T02:51:22.111Z,19.00
2022-10-05T02:54:00.189Z,19.00
2022-10-05T02:56:27.239Z,19.00
2022-10-05T02:59:16.832Z,19.00
2022-10-05T03:01:55.029Z,18.90
2022-10-05T03:04:37.660Z,19.00
2022-10-05T03:07:22.799Z,19.00
2022-10-05T03:10:01.289Z,19.00
2022-10-05T03:12:55.040Z,19.00
2022-10-05T03:15:49.816Z,19.00
2022-10-05T03:18:38.613Z,19.00
2022-10-05T03:21:21.879Z,19.00
2022-10-05T03:23:54.840Z,18.90
2022-10-05T03:26:33.436Z,19.00
2022-10-05T03:29:08.580Z,19.00
2022-10-05T03:31:35.638Z,19.00
2022-10-05T03:34:14.084Z,18.90
2022-10-05T03:37:02.980Z,18.90
2022-10-05T03:39:46.818Z,19.20
2022-10-05T03:43:06.100Z,18.90
2022-10-05T03:45:41.640Z,18.90
2022-10-05T03:48:12.989Z,18.90
2022-10-05T03:50:57.105Z,19.00
2022-10-05T03:53:29.718Z,19.00
2022-10-05T03:56:09.731Z,19.00
2022-10-05T03:58:47.329Z,19.00
2022-10-05T04:01:23.656Z,19.00
2022-10-05T04:03:57.130Z,19.00
2022-10-05T04:06:42.167Z,19.00
2022-10-05T04:09:24.710Z,19.00
2022-10-05T04:11:58.106Z,19.00
2022-10-05T04:14:36.874Z,19.00
2022-10-05T04:17:18.399Z,18.90
2022-10-05T04:19:49.331Z,18.90
2022-10-05T04:22:22.322Z,18.90
2022-10-05T04:25:19.889Z,18.80
2022-10-05T04:27:59.450Z,18.90
2022-10-05T04:30:26.665Z,18.90
2022-10-05T04:32:59.059Z,19.00
2022-10-05T04:35:45.031Z,19.00
2022-10-05T04:38:17.857Z,19.00
2022-10-05T04:41:16.074Z,19.00
2022-10-05T04:44:06.274Z,19.00
2022-10-05T04:47:05.620Z,19.00
2022-10-05T04:50:03.718Z,19.00
2022-10-05T04:52:48.008Z,19.00
2022-10-05T04:55:38.730Z,19.00
2022-10-05T04:58:42.270Z,19.00
2022-10-05T05:01:40.571Z,19.00
2022-10-05T05:04:41.535Z,19.00
2022-10-05T05:07:34.070Z,19.00
2022-10-05T05:10:44.161Z,19.00
2022-10-05T05:13:25.983Z,19.00
2022-10-05T05:16:16.188Z,19.00
2022-10-05T05:18:58.111Z,19.00
2022-10-05T05:21:37.908Z,18.90
2022-10-05T05:24:09.868Z,18.90
2022-10-05T05:27:11.335Z,18.90
2022-10-05T05:29:44.192Z,18.90
2022-10-05T05:32:40.275Z,18.90
2022-10-05T05:35:23.370Z,18.90
2022-10-05T05:38:05.080Z,18.90
2022-10-05T05:40:44.205Z,18.90
2022-10-05T05:43:27.653Z,18.90
2022-10-05T05:46:00.952Z,18.90
2022-10-05T05:48:37.414Z,18.90
2022-10-05T05:51:10.566Z,18.90
2022-10-05T05:53:41.853Z,18.90
2022-10-05T05:56:21.832Z,18.90
2022-10-05T05:59:02.212Z,19.00
2022-10-05T06:01:43.557Z,19.00
2022-10-05T06:04:24.144Z,19.00
2022-10-05T06:06:53.794Z,19.00
2022-10-05T06:09:47.105Z,19.00
2022-10-05T06:12:22.337Z,19.00
2022-10-05T06:15:12.125Z,19.00
2022-10-05T06:17:47.598Z,19.00
2022-10-05T06:20:28.390Z,18.90
2022-10-05T06:22:59.856Z,18.90
2022-10-05T06:26:08.260Z,19.00
2022-10-05T06:28:37.917Z,19.00
2022-10-05T06:31:16.300Z,19.00
2022-10-05T06:33:48.389Z,19.00
2022-10-05T06:36:15.380Z,19.00
2022-10-05T06:39:19.768Z,19.00
2022-10-05T06:42:05.133Z,18.90
2022-10-05T06:44:42.278Z,18.90
2022-10-05T06:47:36.293Z,18.90
2022-10-05T06:50:19.982Z,18.90
2022-10-05T06:53:17.285Z,19.00
2022-10-05T06:55:56.305Z,18.90
2022-10-05T06:58:51.171Z,18.90
2022-10-05T07:01:38.712Z,19.00
2022-10-05T07:04:12.998Z,19.00
2022-10-05T07:06:49.145Z,18.90
2022-10-05T07:09:24.973Z,18.90
2022-10-05T07:12:28.570Z,18.90
2022-10-05T07:15:21.222Z,18.90
2022-10-05T07:18:30.226Z,19.00
2022-10-05T07:21:14.944Z,19.00
2022-10-05T07:23:52.396Z,19.00
2022-10-05T07:26:37.178Z,19.00
2022-10-05T07:29:12.754Z,19.00
2022-10-05T07:31:54.785Z,19.00
2022-10-05T07:34:49.406Z,19.00
2022-10-05T07:37:45.554Z,19.00
2022-10-05T07:40:21.000Z,19.00
2022-10-05T07:42:57.214Z,19.00
2022-10-05T07:46:01.211Z,19.00
2022-10-05T07:48:42.891Z,19.00
2022-10-05T07:51:27.707Z,19.00
2022-10-05T07:54:16.512Z,19.00
2022-10-05T07:56:53.779Z,18.90
2022-10-05T07:59:32.831Z,18.90
2022-10-05T08:02:13.680Z,19.00
2022-10-05T08:05:11.864Z,18.90
2022-10-05T08:07:40.135Z,19.00
2022-10-05T08:10:32.283Z,19.00
2022-10-05T08:13:21.029Z,18.90
2022-10-05T08:15:53.889Z,19.00
2022-10-05T08:18:59.189Z,19.00
2022-10-05T08:21:34.201Z,19.00
2022-10-05T08:24:15.484Z,19.00
2022-10-05T08:27:01.055Z,19.00
2022-10-05T08:29:49.396Z,19.00
2022-10-05T08:32:26.624Z,19.00
2022-10-05T08:35:21.688Z,19.00
2022-10-05T08:37:49.266Z,19.10
2022-10-05T08:40:19.117Z,19.00
2022-10-05T08:43:11.148Z,18.80
2022-10-05T08:45:54.317Z,18.60
2022-10-05T08:48:49.093Z,18.40
2022-10-05T08:51:33.139Z,18.30
2022-10-05T08:54:06.048Z,18.00
2022-10-05T08:56:41.693Z,17.90
2022-10-05T08:59:27.188Z,17.90
2022-10-05T09:01:57.066Z,18.00
2022-10-05T09:04:28.112Z,18.10
2022-10-05T09:07:19.874Z,18.20
2022-10-05T09:10:20.161Z,18.20
2022-10-05T09:13:18.184Z,18.20
2022-10-05T09:15:59.510Z,18.20
2022-10-05T09:18:49.725Z,18.30
2022-10-05T09:21:31.833Z,18.20
2022-10-05T09:24:15.512Z,18.20
2022-10-05T09:26:52.949Z,18.20
2022-10-05T09:29:44.965Z,18.10
2022-10-05T09:32:30.223Z,18.10
2022-10-05T09:35:31.366Z,18.00
2022-10-05T09:38:12.489Z,18.00
2022-10-05T09:41:18.638Z,18.00
2022-10-05T09:43:57.837Z,18.10
2022-10-05T09:46:53.954Z,18.20
2022-10-05T09:49:43.487Z,18.20
2022-10-05T09:52:31.358Z,18.30
2022-10-05T09:55:05.416Z,18.30
2022-10-05T09:58:14.198Z,18.30
2022-10-05T10:01:33.195Z,18.30
2022-10-05T10:04:15.263Z,18.40
2022-10-05T10:06:46.328Z,18.30
2022-10-05T10:09:56.374Z,18.30
2022-10-05T10:13:17.502Z,18.40
2022-10-05T10:15:54.310Z,18.30
2022-10-05T10:18:50.518Z,18.50
2022-10-05T10:21:39.474Z,18.40
2022-10-05T10:24:37.931Z,18.40
2022-10-05T10:27:23.603Z,18.40
2022-10-05T10:30:18.901Z,18.40
2022-10-05T10:33:24.519Z,18.40
2022-10-05T10:36:16.643Z,18.40
2022-10-05T10:39:09.848Z,18.40
2022-10-05T10:42:21.512Z,18.40
2022-10-05T10:45:12.303Z,18.30
2022-10-05T10:48:09.124Z,18.40
2022-10-05T10:51:04.224Z,18.40
2022-10-05T10:54:18.847Z,18.40
2022-10-05T10:57:04.330Z,18.40
2022-10-05T10:59:34.412Z,18.40
2022-10-05T11:02:29.435Z,18.40
2022-10-05T11:05:24.286Z,18.40
2022-10-05T11:08:02.573Z,18.40
2022-10-05T11:10:29.573Z,18.40
2022-10-05T11:13:26.960Z,18.40
2022-10-05T11:16:21.939Z,18.40
2022-10-05T11:19:59.528Z,18.40
2022-10-05T11:22:40.140Z,18.40
2022-10-05T11:25:24.966Z,18.40
2022-10-05T11:28:32.776Z,18.40
2022-10-05T11:31:31.030Z,18.40
2022-10-05T11:34:31.361Z,18.40
2022-10-05T11:37:48.245Z,18.40
2022-10-05T11:40:50.401Z,18.40
2022-10-05T11:43:36.681Z,18.40
2022-10-05T11:46:27.563Z,18.40
2022-10-05T11:49:05.194Z,18.40
2022-10-05T11:51:45.783Z,18.40
2022-10-05T11:54:17.327Z,18.40
2022-10-05T11:56:54.891Z,18.40
2022-10-05T11:59:39.797Z,18.40
2022-10-05T12:02:27.133Z,18.40
2022-10-05T12:05:10.670Z,18.40
2022-10-05T12:08:10.401Z,18.40
2022-10-05T12:11:06.697Z,18.40
2022-10-05T12:13:39.958Z,18.40
2022-10-05T12:16:28.259Z,18.40
2022-10-05T12:18:59.842Z,18.50
2022-10-05T12:21:32.682Z,18.40
2022-10-05T12:24:12.918Z,18.40
2022-10-05T12:26:57.817Z,18.40
2022-10-05T12:29:41.786Z,18.40
2022-10-05T12:33:01.722Z,18.40
2022-10-05T12:35:56.319Z,18.40
2022-10-05T12:38:28.487Z,18.40
2022-10-05T12:41:09.813Z,18.40
2022-10-05T12:44:02.367Z,18.40
2022-10-05T12:46:58.382Z,18.50
2022-10-05T12:49:44.171Z,18.50
2022-10-05T12:52:49.368Z,18.50
2022-10-05T12:55:26.559Z,18.50
2022-10-05T12:58:13.596Z,18.50
2022-10-05T13:00:57.894Z,18.50
2022-10-05T13:03:33.579Z,18.50
2022-10-05T13:06:17.388Z,18.50
2022-10-05T13:08:59.611Z,18.50
2022-10-05T13:11:45.484Z,18.50
2022-10-05T13:14:36.995Z,18.50
2022-10-05T13:17:15.736Z,18.50
2022-10-05T13:19:47.543Z,18.50
2022-10-05T13:22:35.933Z,18.50
2022-10-05T13:25:14.251Z,18.50
2022-10-05T13:27:51.964Z,18.50
2022-10-05T13:30:20.692Z,18.50
2022-10-05T13:32:57.164Z,18.50
2022-10-05T13:35:40.133Z,18.50
2022-10-05T13:38:38.036Z,18.50
2022-10-05T13:41:45.317Z,18.50
2022-10-05T13:44:18.654Z,18.50
2022-10-05T13:46:48.414Z,18.60
2022-10-05T13:49:29.290Z,18.60
2022-10-05T13:52:03.333Z,18.60
2022-10-05T13:54:45.449Z,18.50
2022-10-05T13:57:31.294Z,18.60
2022-10-05T14:00:12.461Z,18.60
2022-10-05T14:02:43.207Z,18.50
2022-10-05T14:05:24.027Z,18.60
2022-10-05T14:07:58.510Z,18.50
2022-10-05T14:10:46.239Z,18.50
2022-10-05T14:13:44.177Z,18.50
2022-10-05T14:16:24.759Z,18.70
2022-10-05T14:19:08.374Z,18.80
2022-10-05T14:21:53.606Z,18.90
2022-10-05T14:24:45.891Z,19.00
2022-10-05T14:27:31.062Z,19.10
2022-10-05T14:30:13.100Z,19.20
2022-10-05T14:32:50.614Z,19.20
2022-10-05T14:35:21.939Z,19.20
2022-10-05T14:37:56.265Z,19.30
2022-10-05T14:40:37.814Z,19.30
2022-10-05T14:43:19.724Z,19.30
2022-10-05T14:46:16.096Z,19.30
2022-10-05T14:48:45.824Z,19.30
2022-10-05T14:51:31.691Z,19.30
2022-10-05T14:54:14.819Z,19.30
2022-10-05T14:57:14.511Z,19.30
2022-10-05T15:00:14.275Z,19.30
2022-10-05T15:02:50.431Z,19.40
2022-10-05T15:05:42.622Z,19.30
2022-10-05T15:08:17.255Z,19.40
2022-10-05T15:11:29.007Z,19.40
2022-10-05T15:13:57.747Z,19.40
2022-10-05T15:16:31.171Z,19.30
2022-10-05T15:19:27.402Z,19.30
2022-10-05T15:22:18.775Z,19.40
2022-10-05T15:25:11.523Z,19.40
2022-10-05T15:27:58.707Z,19.40
2022-10-05T15:30:25.879Z,19.40
2022-10-05T15:33:25.096Z,19.40
2022-10-05T15:36:20.400Z,19.40
2022-10-05T15:39:00.610Z,19.40
2022-10-05T15:41:36.745Z,19.40
2022-10-05T15:44:10.896Z,19.40
2022-10-05T15:46:56.369Z,19.40
2022-10-05T15:49:42.238Z,19.40
2022-10-05T15:52:40.517Z,19.40
2022-10-05T15:55:46.593Z,19.40
2022-10-05T15:58:53.020Z,19.40
2022-10-05T16:01:47.041Z,19.40
2022-10-05T16:04:22.917Z,19.40
2022-10-05T16:07:16.277Z,19.40
2022-10-05T16:10:06.740Z,19.40
2022-10-05T16:12:45.889Z,19.40
2022-10-05T16:15:17.871Z,19.40
2022-10-05T16:18:23.194Z,19.40
2022-10-05T16:20:54.698Z,19.40
2022-10-05T16:24:05.698Z,19.40
2022-10-05T16:26:36.372Z,19.40
2022-10-05T16:29:29.330Z,19.40
2022-10-05T16:32:30.065Z,19.40
2022-10-05T16:35:21.794Z,19.40
2022-10-05T16:37:48.915Z,19.40
2022-10-05T16:40:26.483Z,19.40
2022-10-05T16:43:17.549Z,19.40
2022-10-05T16:46:28.050Z,19.40
2022-10-05T16:49:36.610Z,19.40
2022-10-05T16:52:06.887Z,19.40
2022-10-05T16:54:37.918Z,19.40
2022-10-05T16:57:17.412Z,19.40
2022-10-05T17:00:20.429Z,19.40
2022-10-05T17:03:02.302Z,19.40
2022-10-05T17:05:55.646Z,19.40
2022-10-05T17:08:53.934Z,19.40
2022-10-05T17:11:50.868Z,19.40
2022-10-05T17:14:42.746Z,19.40
2022-10-05T17:17:28.502Z,19.40
2022-10-05T17:20:23.534Z,19.40
2022-10-05T17:22:54.850Z,19.40
2022-10-05T17:25:38.755Z,19.40
2022-10-05T17:28:23.553Z,19.40
2022-10-05T17:31:08.991Z,19.40
2022-10-05T17:33:58.687Z,19.40
2022-10-05T17:36:43.851Z,19.40
2022-10-05T17:39:17.615Z,19.40
2022-10-05T17:41:45.148Z,19.40
2022-10-05T17:44:21.220Z,19.40
2022-10-05T17:46:59.563Z,19.40
2022-10-05T17:49:26.834Z,19.40
2022-10-05T17:52:12.344Z,19.40
2022-10-05T17:55:03.911Z,19.40
2022-10-05T17:57:31.588Z,19.40
2022-10-05T18:00:06.868Z,19.40
2022-10-05T18:02:40.006Z,19.40
2022-10-05T18:05:12.663Z,19.40
2022-10-05T18:07:41.462Z,19.40
2022-10-05T18:10:17.275Z,19.40
2022-10-05T18:12:48.800Z,19.40
2022-10-05T18:15:25.023Z,19.40
2022-10-05T18:17:54.760Z,19.40
2022-10-05T18:20:26.336Z,19.40
2022-10-05T18:23:05.965Z,19.40
2022-10-05T18:25:52.619Z,19.40
2022-10-05T18:28:30.387Z,19.40
2022-10-05T18:31:16.769Z,19.40
2022-10-05T18:34:05.780Z,19.40
2022-10-05T18:36:48.104Z,19.40
2022-10-05T18:39:24.309Z,19.40
2022-10-05T18:42:17.837Z,19.40
2022-10-05T18:44:53.409Z,19.40
2022-10-05T18:47:49.409Z,19.40
2022-10-05T18:50:25.168Z,19.30
2022-10-05T18:53:06.649Z,19.30
2022-10-05T18:55:41.826Z,19.30
2022-10-05T18:58:14.071Z,19.30
2022-10-05T19:00:57.305Z,19.50
2022-10-05T19:03:39.609Z,19.30
2022-10-05T19:06:18.363Z,19.30
2022-10-05T19:08:58.079Z,19.30
2022-10-05T19:11:40.794Z,19.30
2022-10-05T19:14:35.334Z,19.30
2022-10-05T19:17:32.305Z,19.30
2022-10-05T19:20:18.969Z,19.30
2022-10-05T19:23:21.679Z,19.30
2022-10-05T19:25:58.661Z,19.30
2022-10-05T19:28:40.982Z,19.30
2022-10-05T19:31:39.097Z,19.30
2022-10-05T19:34:16.397Z,19.30
2022-10-05T19:37:02.190Z,19.30
2022-10-05T19:39:50.515Z,19.30
2022-10-05T19:42:46.287Z,19.30
2022-10-05T19:45:21.861Z,19.30
2022-10-05T19:48:16.334Z,19.30
2022-10-05T19:50:58.021Z,19.30
2022-10-05T19:53:36.959Z,19.30
2022-10-05T19:56:20.199Z,19.30
2022-10-05T19:58:49.082Z,19.30
2022-10-05T20:01:40.540Z,19.30
2022-10-05T20:04:09.607Z,19.20
2022-10-05T20:06:39.372Z,19.30
2022-10-05T20:09:20.955Z,19.30
2022-10-05T20:11:52.596Z,19.30
2022-10-05T20:14:33.315Z,19.30
2022-10-05T20:17:45.479Z,19.30
2022-10-05T20:20:29.636Z,19.30
2022-10-05T20:23:20.436Z,19.20
2022-10-05T20:26:08.109Z,19.30
2022-10-05T20:28:35.626Z,19.30
2022-10-05T20:31:03.272Z,19.30
2022-10-05T20:33:30.383Z,19.20
2022-10-05T20:35:57.503Z,19.20
2022-10-05T20:38:24.788Z,19.20
2022-10-05T20:40:52.087Z,19.20
2022-10-05T20:43:19.109Z,19.20
2022-10-05T20:45:46.156Z,19.20
2022-10-05T20:48:14.231Z,19.20
2022-10-05T20:50:41.312Z,19.20
2022-10-05T20:53:11.961Z,19.20
2022-10-05T20:55:39.306Z,19.20
2022-10-05T20:58:08.796Z,19.20
2022-10-05T21:00:54.474Z,19.20
2022-10-05T21:03:21.629Z,19.20
2022-10-05T21:05:48.677Z,19.20
2022-10-05T21:08:15.785Z,19.20
2022-10-05T21:10:42.794Z,19.20
2022-10-05T21:13:09.821Z,19.20
2022-10-05T21:15:38.165Z,19.20
2022-10-05T21:18:05.246Z,19.20
2022-10-05T21:20:32.950Z,19.20
2022-10-05T21:22:59.997Z,19.20
2022-10-05T21:25:27.042Z,19.10
2022-10-05T21:27:54.325Z,19.20
2022-10-05T21:30:21.452Z,19.20
2022-10-05T21:32:48.537Z,19.10
2022-10-05T21:35:15.627Z,19.20
2022-10-05T21:37:42.694Z,19.20
2022-10-05T21:40:10.327Z,19.20
2022-10-05T21:42:37.419Z,19.20
2022-10-05T21:45:04.888Z,19.10
2022-10-05T21:47:31.946Z,19.20
2022-10-05T21:50:00.277Z,19.20
2022-10-05T21:52:27.332Z,19.20
2022-10-05T21:54:54.460Z,19.20
2022-10-05T21:57:21.790Z,19.20
2022-10-05T21:59:49.518Z,19.20
2022-10-05T22:02:16.556Z,19.20
2022-10-05T22:04:43.616Z,19.20
2022-10-05T22:07:19.513Z,19.20
2022-10-05T22:09:50.223Z,19.20
2022-10-05T22:12:19.777Z,19.20
2022-10-05T22:14:47.343Z,19.20
2022-10-05T22:17:24.349Z,19.20
2022-10-05T22:19:51.580Z,19.20
2022-10-05T22:22:18.768Z,19.20
2022-10-05T22:24:45.824Z,19.20
2022-10-05T22:27:13.396Z,19.20
2022-10-05T22:29:41.359Z,19.20
2022-10-05T22:32:08.613Z,19.20
2022-10-05T22:34:35.688Z,19.20
2022-10-05T22:37:04.031Z,19.20
2022-10-05T22:39:31.087Z,19.20
2022-10-05T22:41:58.452Z,19.20
2022-10-05T22:44:25.488Z,19.20
2022-10-05T22:46:52.520Z,19.20
2022-10-05T22:49:19.796Z,19.20
2022-10-05T22:51:48.052Z,19.20
2022-10-05T22:54:15.546Z,19.20
2022-10-05T22:56:43.057Z,19.20
2022-10-05T22:59:10.345Z,19.20
2022-10-05T23:01:37.425Z,19.20
2022-10-05T23:04:04.529Z,19.20
2022-10-05T23:06:31.626Z,19.20
2022-10-05T23:08:58.664Z,19.20
2022-10-05T23:11:30.084Z,19.20
2022-10-05T23:13:57.926Z,19.20
2022-10-05T23:16:27.336Z,19.20
2022-10-05T23:18:55.458Z,19.20
2022-10-05T23:21:24.342Z,19.20
2022-10-05T23:23:51.508Z,19.20
2022-10-05T23:26:24.006Z,19.10
2022-10-05T23:28:51.567Z,19.10
2022-10-05T23:31:24.440Z,19.10
2022-10-05T23:33:52.450Z,19.20
2022-10-05T23:36:20.772Z,19.20
2022-10-05T23:38:47.956Z,19.10
2022-10-05T23:41:15.984Z,19.10
2022-10-05T23:43:43.457Z,19.10
2022-10-05T23:46:10.811Z,19.10
2022-10-05T23:48:38.162Z,19.10
2022-10-05T23:51:07.373Z,19.10
2022-10-05T23:53:34.921Z,19.10
2022-10-05T23:56:02.265Z,19.10
2022-10-05T23:58:29.746Z,19.10
